Latest Weather Observations for Wudinna Airport

IDS60801

Issued at 6:01 pm CDT Saturday 25 November 2017 (issued every 30 minutes, with the page automatically refreshed every 10 minutes)

About weather observations | Map of weather stations | Latest weather observations for SA | Other Formats
Station Details ID: 018083 Name: WUDINNA AERO Lat: -33.04 Lon: 135.45 Height: 86.4 m
Data from the previous 72 hours. | See also: Recent months at Wudinna Airport
Date/Time
CDT
Temp
°C
App
Temp
°C
Dew
Point
°C
Rel
Hum
%
Delta-T
°C
Wind Press
QNH
hPa
Press
MSL
hPa
Rain since
9am
mm
Dir  Spd
km/h
Gust
km/h
Spd
kts
Gust
kts
25/06:00pm 24.8 20.7 13.7 50 6.5 SSW 28 39 15 21 1011.4 1011.1 0.0
25/05:30pm 25.9 21.3 13.4 46 7.4 SSW 30 39 16 21 1011.2 1010.9 0.0
25/05:00pm 26.9 24.5 11.4 38 8.9 S 15 28 8 15 1011.2 1010.9 0.0
25/04:30pm 26.6 24.7 11.9 40 8.5 S 13 19 7 10 1011.3 1011.0 0.0
25/04:00pm 26.7 24.6 12.4 41 8.3 SW 15 22 8 12 1011.3 1011.0 0.0
25/03:30pm 27.1 25.3 12.0 39 8.7 SW 13 22 7 12 1011.5 1011.2 0.0
25/03:00pm 25.7 24.3 12.2 43 7.8 SW 11 24 6 13 1011.7 1011.4 0.0
25/02:30pm 25.4 25.0 12.9 45 7.3 S 7 19 4 10 1012.0 1011.7 0.0
25/02:00pm 24.4 23.3 13.0 49 6.6 S 11 19 6 10 1012.4 1012.1 0.0
25/01:30pm 23.5 22.8 13.1 52 6.0 SSE 9 15 5 8 1012.6 1012.3 0.0
25/01:00pm 22.5 21.8 13.3 56 5.3 SSW 9 15 5 8 1013.1 1012.8 0.0
25/12:30pm 22.2 21.8 13.0 56 5.3 N 7 15 4 8 1013.4 1013.1 0.0
25/12:00pm 20.9 20.7 13.6 63 4.2 NW 7 13 4 7 1013.8 1013.5 0.0
25/11:30am 20.4 20.3 13.4 64 4.0 NE 6 11 3 6 1014.1 1013.8 0.0
25/11:00am 19.6 19.7 14.0 70 3.2 W 6 9 3 5 1014.1 1013.8 0.0
25/10:30am 18.6 18.5 13.9 74 2.7 E 7 9 4 5 1014.3 1014.0 0.0
25/10:00am 18.3 17.8 13.8 75 2.6 E 9 13 5 7 1014.3 1014.0 0.0
25/09:30am 18.0 18.0 13.7 76 2.5 ESE 6 11 3 6 1014.4 1014.1 0.0
25/09:00am 17.8 17.6 13.7 77 2.3 E 7 13 4 7 1014.5 1014.2 0.0
25/08:30am 17.5 16.9 13.6 78 2.2 ESE 9 11 5 6 1014.4 1014.1 0.0
25/08:00am 17.3 16.7 13.6 79 2.1 ESE 9 11 5 6 1014.3 1014.0 0.0
25/07:30am 17.2 17.0 13.7 80 2.0 SE 7 11 4 6 1014.1 1013.8 0.0
25/07:00am 17.0 16.9 13.9 82 1.8 SE 7 11 4 6 1013.9 1013.6 0.0
25/06:30am 16.9 16.8 14.0 83 1.7 SSE 7 11 4 6 1013.8 1013.5 0.0
25/06:00am 16.8 16.3 13.9 83 1.7 SSE 9 13 5 7 1013.6 1013.3 0.0
25/05:30am 16.8 16.3 13.9 83 1.7 S 9 13 5 7 1013.4 1013.1 0.0
25/05:00am 16.8 16.4 14.1 84 1.5 S 9 13 5 7 1013.3 1013.0 0.0
25/04:30am 16.8 16.0 13.9 83 1.7 SSW 11 13 6 7 1013.3 1013.0 0.0
25/04:00am 16.8 16.4 14.1 84 1.5 S 9 11 5 6 1013.3 1013.0 0.0
25/03:30am 16.8 16.0 14.1 84 1.5 SSW 11 11 6 6 1013.4 1013.1 0.0
25/03:00am 16.8 16.0 13.9 83 1.7 SSW 11 13 6 7 1013.6 1013.3 0.0
25/02:30am 16.8 15.6 14.1 84 1.5 SSW 13 17 7 9 1013.6 1013.3 0.0
25/02:00am 16.9 15.7 14.0 83 1.7 S 13 17 7 9 1013.9 1013.6 0.0
25/01:30am 16.9 15.6 13.8 82 1.8 S 13 15 7 8 1014.2 1013.9 0.0
25/01:00am 17.1 15.8 13.6 80 2.0 S 13 17 7 9 1014.4 1014.1 0.0
25/12:30am 17.3 16.4 13.8 80 2.0 S 11 15 6 8 1015.0 1014.8 0.0
25/12:00am 17.3 15.7 13.8 80 2.0 SSW 15 19 8 10 1015.4 1015.2 0.0
 
Date/Time
CDT
Temp
°C
App
Temp
°C
Dew
Point
°C
Rel
Hum
%
Delta-T
°C
Wind Press
QNH
hPa
Press
MSL
hPa
Rain since
9am
mm
Dir  Spd
km/h
Gust
km/h
Spd
kts
Gust
kts
24/11:30pm 17.2 15.9 13.7 80 2.0 SSW 13 17 7 9 1015.4 1015.2 0.0
24/11:00pm 17.3 15.7 13.8 80 2.0 S 15 19 8 10 1015.4 1015.2 0.0
24/10:30pm 17.6 16.0 13.9 79 2.1 SSW 15 19 8 10 1015.2 1015.0 0.0
24/10:00pm 17.6 15.0 13.7 78 2.2 SSW 20 24 11 13 1015.0 1014.8 0.0
24/09:30pm 17.5 14.9 13.8 79 2.1 SW 20 28 11 15 1014.7 1014.4 0.0
24/09:00pm 17.2 15.1 13.5 79 2.1 SW 17 22 9 12 1014.3 1014.0 0.0
24/08:30pm 17.9 15.2 13.6 76 2.4 SW 20 26 11 14 1014.1 1013.8 0.0
24/08:00pm 18.9 15.4 13.5 71 3.1 SW 24 32 13 17 1013.9 1013.6 0.0
24/07:30pm 20.0 16.7 13.9 68 3.5 SW 24 32 13 17 1013.7 1013.4 0.0
24/07:00pm 21.0 17.8 14.2 65 4.0 SW 24 32 13 17 1013.3 1013.0 0.0
24/06:30pm 22.0 18.4 14.1 61 4.6 SW 26 33 14 18 1013.1 1012.8 0.0
24/06:00pm 22.2 18.6 14.1 60 4.7 SSW 26 33 14 18 1013.1 1012.8 0.0
24/05:30pm 22.7 18.9 14.8 61 4.7 SW 28 37 15 20 1013.0 1012.7 0.0
24/05:00pm 23.2 19.7 14.5 58 5.2 WSW 26 35 14 19 1013.1 1012.8 0.0
24/04:30pm 23.4 20.4 13.8 54 5.6 SW 22 30 12 16 1013.1 1012.8 0.0
24/04:00pm 22.9 19.9 13.7 56 5.4 SW 22 28 12 15 1013.2 1012.9 0.0
24/03:30pm 22.9 19.6 13.9 57 5.3 SW 24 30 13 16 1013.1 1012.8 0.0
24/03:00pm 22.8 19.8 12.7 53 5.8 SW 20 26 11 14 1013.2 1012.9 0.0
24/02:30pm 23.4 20.8 13.3 53 5.9 WSW 19 26 10 14 1013.4 1013.1 0.0
24/02:00pm 24.1 21.6 13.6 52 6.2 SW 19 26 10 14 1013.6 1013.3 0.0
24/01:30pm 22.8 20.9 13.0 54 5.6 SW 15 20 8 11 1013.8 1013.5 0.0
24/01:00pm 21.9 19.7 13.3 58 5.0 SW 17 24 9 13 1014.1 1013.8 0.0
24/12:30pm 22.2 20.7 13.0 56 5.3 SW 13 22 7 12 1014.4 1014.1 0.0
24/12:00pm 21.5 20.0 13.2 59 4.8 SSW 13 22 7 12 1014.6 1014.3 0.0
24/11:30am 20.9 19.2 12.3 58 4.9 SW 13 20 7 11 1014.7 1014.4 0.0
24/11:00am 20.8 19.6 14.0 65 4.0 SW 13 20 7 11 1014.8 1014.6 0.0
24/10:30am 19.0 18.4 13.6 71 3.1 S 9 15 5 8 1015.1 1014.9 0.0
24/10:00am 18.2 17.7 13.7 75 2.6 S 9 13 5 7 1015.1 1014.9 0.0
24/09:30am 18.1 17.7 14.0 77 2.4 S 9 17 5 9 1015.0 1014.8 0.0
24/09:00am 17.6 17.4 13.7 78 2.2 S 7 11 4 6 1014.9 1014.7 0.2
24/08:30am 17.1 16.5 13.6 80 2.0 S 9 13 5 7 1014.7 1014.4 0.2
24/08:00am 16.8 16.6 13.7 82 1.8 SSW 7 9 4 5 1014.3 1014.0 0.2
24/07:30am 16.5 16.0 13.8 84 1.5 S 9 9 5 5 1014.0 1013.7 0.2
24/07:00am 16.2 15.5 13.3 83 1.6 SSE 9 11 5 6 1013.7 1013.4 0.2
24/06:30am 16.1 15.8 13.4 84 1.5 SSE 7 9 4 5 1013.3 1013.0 0.2
24/06:00am 15.9 15.3 13.4 85 1.4 SE 9 15 5 8 1013.1 1012.8 0.2
24/05:30am 15.9 15.0 13.6 86 1.3 SSE 11 15 6 8 1012.7 1012.4 0.2
24/05:00am 15.8 13.7 13.6 87 1.2 S 17 22 9 12 1012.4 1012.1 0.2
24/04:30am 15.6 13.1 13.6 88 1.1 S 19 24 10 13 1012.3 1012.0 0.2
24/04:00am 15.7 13.6 13.5 87 1.2 S 17 24 9 13 1012.1 1011.8 0.2
24/03:30am 15.9 14.3 13.9 88 1.1 SSE 15 20 8 11 1012.0 1011.7 0.2
24/03:00am 16.5 14.6 14.3 87 1.3 S 17 22 9 12 1012.0 1011.7 0.2
24/02:30am 16.7 14.6 14.7 88 1.2 S 19 22 10 12 1012.2 1011.9 0.2
24/02:00am 16.6 14.5 14.8 89 1.0 S 19 24 10 13 1012.3 1012.0 0.2
24/01:30am 16.5 14.7 14.5 88 1.1 SSW 17 22 9 12 1012.4 1012.1 0.2
24/01:00am 16.9 15.1 14.5 86 1.4 SW 17 22 9 12 1012.6 1012.3 0.2
24/12:30am 16.8 15.1 14.6 87 1.3 SSW 17 20 9 11 1012.8 1012.5 0.2
24/12:00am 16.6 15.2 14.6 88 1.2 SW 15 20 8 11 1012.8 1012.5 0.2
 
Date/Time
CDT
Temp
°C
App
Temp
°C
Dew
Point
°C
Rel
Hum
%
Delta-T
°C
Wind Press
QNH
hPa
Press
MSL
hPa
Rain since
9am
mm
Dir  Spd
km/h
Gust
km/h
Spd
kts
Gust
kts
23/11:30pm 16.5 15.8 14.2 86 1.3 WSW 11 15 6 8 1012.7 1012.4 0.2
23/11:00pm 17.0 15.9 14.3 84 1.5 SW 13 20 7 11 1012.9 1012.6 0.2
23/10:30pm 17.1 15.9 14.0 82 1.8 WSW 13 17 7 9 1012.7 1012.4 0.2
23/10:00pm 17.7 15.7 14.0 79 2.1 SW 17 20 9 11 1012.3 1012.0 0.2
23/09:30pm 18.3 16.1 14.4 78 2.3 SSW 19 24 10 13 1012.0 1011.7 0.2
23/09:00pm 18.3 16.4 14.2 77 2.4 SW 17 20 9 11 1011.8 1011.5 0.2
23/08:30pm 18.9 16.4 13.5 71 3.1 SSW 19 24 10 13 1011.4 1011.1 0.2
23/08:00pm 19.9 15.7 13.4 66 3.7 SSW 28 35 15 19 1010.7 1010.4 0.2
23/07:30pm 20.9 16.0 12.6 59 4.7 SW 30 39 16 21 1010.2 1009.9 0.2
23/07:00pm 22.2 17.7 12.5 54 5.5 WSW 28 41 15 22 1009.5 1009.2 0.2
23/06:30pm 22.6 18.3 13.1 55 5.5 W 28 39 15 21 1009.2 1008.9 0.2
23/06:00pm 21.7 17.0 13.1 58 4.9 WSW 30 39 16 21 1009.1 1008.8 0.2
23/05:58pm 21.8 17.3 12.6 56 5.2 WSW 28 39 15 21 1009.1 1008.8 0.2
23/05:30pm 23.2 20.8 9.9 43 7.3 SSW 13 20 7 11 1008.9 1008.6 0.2
23/05:00pm 23.9 21.3 9.5 40 7.9 SW 13 22 7 12 1008.8 1008.5 0.2
23/04:30pm 23.9 21.3 9.5 40 7.9 WSW 13 20 7 11 1008.8 1008.5 0.2
23/04:00pm 23.3 20.4 11.0 46 6.9 SW 17 24 9 13 1008.9 1008.6 0.2
23/03:30pm 23.6 21.6 11.6 47 6.8 SSW 13 28 7 15 1008.9 1008.6 0.2
23/03:00pm 23.1 20.8 9.1 41 7.6 S 11 17 6 9 1009.2 1008.9 0.2
23/02:30pm 23.3 21.0 9.0 40 7.7 SW 11 17 6 9 1009.5 1009.2 0.2
23/02:00pm 22.9 21.8 11.9 50 6.2 ENE 9 11 5 6 1009.8 1009.5 0.2
23/01:30pm 22.2 20.4 11.0 49 6.2 NW 11 19 6 10 1010.0 1009.7 0.2
23/01:00pm 21.2 19.1 9.8 48 6.2 N 11 22 6 12 1010.6 1010.3 0.2
23/12:30pm 20.2 17.6 10.6 54 5.2 N 15 20 8 11 1010.7 1010.4 0.2
23/12:00pm 20.1 18.4 11.1 56 5.0 WNW 11 22 6 12 1010.6 1010.3 0.2
23/11:30am 19.8 18.2 11.6 59 4.5 WNW 11 20 6 11 1010.8 1010.5 0.0
23/11:00am 19.3 17.4 11.8 62 4.2 WNW 13 19 7 10 1011.0 1010.7 0.0
23/10:30am 18.7 16.3 11.5 63 4.0 W 15 22 8 12 1011.1 1010.8 0.0
23/10:00am 18.6 16.4 12.1 66 3.6 NW 15 20 8 11 1011.1 1010.8 0.0
23/09:30am 17.4 15.0 12.7 74 2.6 WNW 17 24 9 13 1011.2 1010.9 0.0
23/09:00am 17.0 14.9 13.5 80 2.0 WNW 17 22 9 12 1011.4 1011.1 36.2
23/08:30am 16.6 14.5 13.7 83 1.6 NW 17 22 9 12 1011.2 1010.9 36.2
23/08:00am 15.7 13.5 13.4 86 1.3 NW 17 20 9 11 1010.9 1010.6 36.2
23/07:30am 15.2 14.7 13.7 91 0.8 NNW 9 13 5 7 1010.9 1010.6 36.2
23/07:00am 14.0 12.8 12.9 93 0.6 NNW 11 13 6 7 1010.6 1010.3 36.2
23/06:30am 13.9 13.0 12.6 92 0.7 WNW 9 13 5 7 1010.5 1010.2 36.2
23/06:00am 13.9 13.1 12.8 93 0.6 NW 9 11 5 6 1010.4 1010.1 36.2
23/05:30am 14.4 13.7 13.1 92 0.7 WNW 9 11 5 6 1010.1 1009.8 36.2
23/05:00am 14.4 13.3 13.1 92 0.7 W 11 15 6 8 1009.8 1009.5 36.2
23/04:30am 14.7 12.9 13.2 91 0.8 W 15 17 8 9 1009.8 1009.5 36.2
23/04:00am 15.1 13.1 14.0 93 0.6 W 17 20 9 11 1009.3 1009.0 36.2
23/03:30am 15.1 13.5 14.0 93 0.6 W 15 20 8 11 1009.9 1009.6 35.8
23/03:00am 15.0 13.4 13.9 93 0.6 W 15 20 8 11 1009.4 1009.1 35.4
23/02:30am 15.2 12.9 14.1 93 0.6 WSW 19 26 10 14 1009.9 1009.6 33.8
23/02:00am 15.2 12.2 13.7 91 0.8 WSW 22 30 12 16 1010.1 1009.8 30.0
23/01:30am 15.8 13.4 14.3 91 0.9 W 20 26 11 14 1011.2 1010.9 27.6
23/01:00am 16.0 13.6 14.5 91 0.9 W 20 28 11 15 1010.9 1010.6 26.8
23/12:30am 16.1 15.6 14.8 92 0.8 W 11 17 6 9 1011.1 1010.8 26.8
23/12:00am 16.1 14.0 14.8 92 0.8 WSW 19 24 10 13 1011.0 1010.7 26.8
 
Date/Time
CDT
Temp
°C
App
Temp
°C
Dew
Point
°C
Rel
Hum
%
Delta-T
°C
Wind Press
QNH
hPa
Press
MSL
hPa
Rain since
9am
mm
Dir  Spd
km/h
Gust
km/h
Spd
kts
Gust
kts
22/11:30pm 16.2 14.0 14.9 92 0.8 W 20 28 11 15 1011.4 1011.1 26.8
22/11:00pm 16.3 14.2 15.2 93 0.6 W 20 26 11 14 1011.5 1011.2 26.8
22/10:30pm 16.3 14.8 15.2 93 0.6 W 17 24 9 13 1011.3 1011.0 25.0
22/10:00pm 16.5 14.7 15.4 93 0.6 W 19 24 10 13 1011.2 1010.9 25.0
22/09:30pm 16.4 14.3 15.3 93 0.6 WSW 20 28 11 15 1010.9 1010.6 24.8
22/09:00pm 16.7 13.6 15.6 93 0.6 W 26 33 14 18 1011.0 1010.7 21.6
22/08:30pm 17.6 15.5 16.1 91 0.9 W 22 30 12 16 1010.4 1010.1 19.8
22/08:00pm 17.8 15.3 16.1 90 1.0 WSW 24 37 13 20 1010.1 1009.8 19.8
22/07:30pm 18.7 16.5 17.0 90 1.0 WSW 24 32 13 17 1009.6 1009.3 19.8
22/07:00pm 19.0 16.3 17.5 91 0.9 WSW 28 37 15 20 1009.1 1008.8 19.8
22/06:30pm 17.0 11.9 13.7 81 1.9 WNW 33 82 18 44 1008.8 1008.5 16.8
22/06:28pm 16.9 11.3 13.2 79 2.1 W 35 82 19 44 1009.0 1008.7 12.2
22/06:27pm 19.9 15.7 16.2 79 2.2 W 33 82 18 44 1008.8 1008.5 10.4
22/06:16pm 23.0 21.9 17.2 70 3.6 W 19 35 10 19 1008.3 1008.0 6.0

Other Formats:

Comma delimited format used in spreadsheet applications
http://www.bom.gov.au/fwo/IDS60801/IDS60801.95654.axf

JavaScript Object Notation format (JSON) in row-major order
http://www.bom.gov.au/fwo/IDS60801/IDS60801.95654.json